createdAt,value
2018-03-17T00:01:40.495Z,100750
2018-03-17T00:03:23.612Z,100761
2018-03-17T00:05:06.734Z,100756
2018-03-17T00:06:49.893Z,100763
2018-03-17T00:08:33.076Z,100757
2018-03-17T00:10:16.955Z,100771
2018-03-17T00:12:00.093Z,100767
2018-03-17T00:13:43.246Z,100763
2018-03-17T00:15:27.125Z,100769
2018-03-17T00:17:10.263Z,100771
2018-03-17T00:18:53.413Z,100769
2018-03-17T00:20:37.301Z,100747
2018-03-17T00:22:20.449Z,100760
2018-03-17T00:24:03.588Z,100751
2018-03-17T00:25:47.491Z,100757
2018-03-17T00:27:30.641Z,100767
2018-03-17T00:29:14.541Z,100749
2018-03-17T00:30:57.789Z,100762
2018-03-17T00:32:41.701Z,100766
2018-03-17T00:34:24.949Z,100757
2018-03-17T00:36:08.838Z,100744
2018-03-17T00:37:51.995Z,100755
2018-03-17T00:39:35.901Z,100756
2018-03-17T00:41:19.028Z,100760
2018-03-17T00:43:02.254Z,100764
2018-03-17T00:44:45.377Z,100764
2018-03-17T00:46:28.518Z,100767
2018-03-17T00:48:11.693Z,100778
2018-03-17T00:49:54.839Z,100772
2018-03-17T00:51:38.724Z,100766
2018-03-17T00:53:21.892Z,100765
2018-03-17T00:55:05.779Z,100768
2018-03-17T00:56:48.896Z,100769
2018-03-17T00:58:32.013Z,100779
2018-03-17T01:00:15.140Z,100769
2018-03-17T01:01:58.288Z,100777
2018-03-17T01:03:42.184Z,100776
2018-03-17T01:05:25.307Z,100767
2018-03-17T01:07:08.442Z,100763
2018-03-17T01:08:51.641Z,100770
2018-03-17T01:10:34.757Z,100778
2018-03-17T01:12:17.985Z,100762
2018-03-17T01:14:01.102Z,100763
2018-03-17T01:15:44.212Z,100769
2018-03-17T01:17:27.383Z,100762
2018-03-17T01:19:10.565Z,100763
2018-03-17T01:20:53.619Z,100765
2018-03-17T01:22:36.773Z,100770
2018-03-17T01:24:20.007Z,100775
2018-03-17T01:26:04.640Z,100772
2018-03-17T01:27:47.773Z,100785
2018-03-17T01:29:31.021Z,100762
2018-03-17T01:31:14.924Z,100774
2018-03-17T01:32:58.076Z,100759
2018-03-17T01:34:41.972Z,100758
2018-03-17T01:36:25.211Z,100752
2018-03-17T01:38:09.108Z,100772
2018-03-17T01:39:52.211Z,100758
2018-03-17T01:41:35.333Z,100765
2018-03-17T01:43:18.460Z,100766
2018-03-17T01:45:01.603Z,100775
2018-03-17T01:46:44.723Z,100756
2018-03-17T01:48:27.872Z,100761
2018-03-17T01:50:11.042Z,100758
2018-03-17T01:51:54.244Z,100755
2018-03-17T01:53:37.368Z,100747
2018-03-17T01:55:20.483Z,100754
2018-03-17T01:57:03.626Z,100639
2018-03-17T01:58:46.765Z,100746
2018-03-17T02:00:30.650Z,100746
2018-03-17T02:02:13.795Z,100743
2018-03-17T02:03:56.931Z,100739
2018-03-17T02:05:40.824Z,100743
2018-03-17T02:07:23.932Z,100736
2018-03-17T02:09:07.122Z,100742
2018-03-17T02:10:51.116Z,100738
2018-03-17T02:12:34.237Z,100741
2018-03-17T02:14:18.144Z,100746
2018-03-17T02:16:01.252Z,100735
2018-03-17T02:17:44.380Z,100737
2018-03-17T02:19:27.502Z,100737
2018-03-17T02:21:11.398Z,100739
2018-03-17T02:22:54.503Z,100753
2018-03-17T02:24:37.652Z,100742
2018-03-17T02:26:20.785Z,100743
2018-03-17T02:28:03.883Z,100747
2018-03-17T02:29:47.122Z,100748
2018-03-17T02:31:30.339Z,100744
2018-03-17T02:33:13.561Z,100739
2018-03-17T02:34:56.682Z,100747
2018-03-17T02:36:39.904Z,100749
2018-03-17T02:38:23.413Z,100745
2018-03-17T02:40:06.531Z,100757
2018-03-17T02:41:49.745Z,100749
2018-03-17T02:43:32.884Z,100769
2018-03-17T02:45:15.999Z,100758
2018-03-17T02:46:59.214Z,100769
2018-03-17T02:48:42.431Z,100761
2018-03-17T02:50:25.540Z,100763
2018-03-17T02:52:08.667Z,100754
2018-03-17T02:53:51.817Z,100767
2018-03-17T02:55:34.938Z,100769
2018-03-17T02:57:18.125Z,100776
2018-03-17T02:59:02.009Z,100774
2018-03-17T03:00:45.181Z,100784
2018-03-17T03:02:29.064Z,100797
2018-03-17T03:04:12.591Z,100794
2018-03-17T03:05:55.737Z,100780
2018-03-17T03:07:38.878Z,100826
2018-03-17T03:09:22.781Z,100781
2018-03-17T03:11:05.880Z,100779
2018-03-17T03:12:49.025Z,100793
2018-03-17T03:14:32.239Z,100791
2018-03-17T03:16:15.378Z,100781
2018-03-17T03:17:59.280Z,100789
2018-03-17T03:19:42.407Z,100797
2018-03-17T03:21:25.523Z,100787
2018-03-17T03:23:08.641Z,100789
2018-03-17T03:24:51.774Z,100787
2018-03-17T03:26:35.655Z,100794
2018-03-17T03:28:18.789Z,100802
2018-03-17T03:30:01.917Z,100784
2018-03-17T03:31:45.025Z,100797
2018-03-17T03:33:28.141Z,100797
2018-03-17T03:35:11.398Z,100803
2018-03-17T03:36:54.484Z,100785
2018-03-17T03:38:37.605Z,100801
2018-03-17T03:40:20.753Z,100783
2018-03-17T03:42:04.628Z,100794
2018-03-17T03:43:47.751Z,100801
2018-03-17T03:45:30.911Z,100808
2018-03-17T03:47:14.829Z,100807
2018-03-17T03:48:57.942Z,100805
2018-03-17T03:50:41.070Z,100814
2018-03-17T03:52:24.201Z,100808
2018-03-17T03:54:08.107Z,100803
2018-03-17T03:55:51.225Z,100803
2018-03-17T03:57:34.341Z,100814
2018-03-17T03:59:17.475Z,100800
2018-03-17T04:01:00.590Z,100808
2018-03-17T04:02:44.472Z,100808
2018-03-17T04:04:27.645Z,100811
2018-03-17T04:06:11.548Z,100805
2018-03-17T04:07:54.675Z,100804
2018-03-17T04:09:37.809Z,100815
2018-03-17T04:11:20.923Z,100815
2018-03-17T04:13:04.041Z,100825
2018-03-17T04:14:47.161Z,100827
2018-03-17T04:16:31.044Z,100823
2018-03-17T04:18:14.169Z,100819
2018-03-17T04:19:57.430Z,100812
2018-03-17T04:21:41.319Z,100819
2018-03-17T04:23:24.445Z,100800
2018-03-17T04:25:07.561Z,100822
2018-03-17T04:26:50.672Z,100808
2018-03-17T04:28:33.795Z,100858
2018-03-17T04:30:16.917Z,100803
2018-03-17T04:32:00.034Z,100822
2018-03-17T04:33:43.170Z,100817
2018-03-17T04:35:26.337Z,100815
2018-03-17T04:37:09.486Z,100825
2018-03-17T04:38:52.609Z,100827
2018-03-17T04:40:35.744Z,100814
2018-03-17T04:42:19.624Z,100844
2018-03-17T04:44:02.793Z,100824
2018-03-17T04:45:45.995Z,100817
2018-03-17T04:47:30.651Z,100837
2018-03-17T04:49:13.774Z,100843
2018-03-17T04:50:56.892Z,100839
2018-03-17T04:52:40.089Z,100819
2018-03-17T04:54:23.225Z,100844
2018-03-17T04:56:06.352Z,100815
2018-03-17T04:57:50.224Z,100821
2018-03-17T04:59:33.373Z,100845
2018-03-17T05:01:16.601Z,100822
2018-03-17T05:02:59.616Z,100820
2018-03-17T05:04:42.720Z,100827
2018-03-17T05:06:25.836Z,100832
2018-03-17T05:08:08.942Z,100854
2018-03-17T05:09:52.084Z,100833
2018-03-17T05:11:36.738Z,100858
2018-03-17T05:13:19.869Z,100829
2018-03-17T05:15:03.778Z,100856
2018-03-17T05:16:46.885Z,100843
2018-03-17T05:18:30.005Z,100825
2018-03-17T05:20:13.159Z,100845
2018-03-17T05:21:57.036Z,100832
2018-03-17T05:23:40.190Z,100837
2018-03-17T05:25:23.324Z,100829
2018-03-17T05:27:07.211Z,100823
2018-03-17T05:28:50.319Z,100838
2018-03-17T05:30:33.487Z,100827
2018-03-17T05:32:17.419Z,100839
2018-03-17T05:34:00.621Z,100828
2018-03-17T05:35:43.755Z,100845
2018-03-17T05:37:27.641Z,100839
2018-03-17T05:41:00.304Z,100828
2018-03-17T05:42:43.433Z,100844
2018-03-17T05:44:26.563Z,100834
2018-03-17T05:46:09.734Z,100844
2018-03-17T05:47:53.614Z,100853
2018-03-17T05:49:36.728Z,100861
2018-03-17T05:51:19.891Z,100854
2018-03-17T05:53:03.793Z,100858
2018-03-17T05:54:46.924Z,100868
2018-03-17T05:56:30.049Z,100850
2018-03-17T05:58:13.248Z,100848
2018-03-17T05:59:56.480Z,100853
2018-03-17T06:01:39.606Z,100857
2018-03-17T06:03:23.481Z,100844
2018-03-17T06:05:06.661Z,100777
2018-03-17T06:06:50.561Z,100813
2018-03-17T06:08:33.685Z,100833
2018-03-17T06:10:16.921Z,100767
2018-03-17T06:12:00.052Z,100742
2018-03-17T06:13:43.937Z,100753
2018-03-17T06:15:27.072Z,100739
2018-03-17T06:17:10.188Z,100770
2018-03-17T06:18:53.312Z,100731
2018-03-17T06:20:36.432Z,100717
2018-03-17T06:22:19.661Z,100761
2018-03-17T06:24:02.857Z,100771
2018-03-17T06:25:46.005Z,100824
2018-03-17T06:27:29.893Z,100855
2018-03-17T06:29:13.009Z,100861
2018-03-17T06:30:56.129Z,100891
2018-03-17T06:32:39.247Z,100890
2018-03-17T06:34:22.349Z,100868
2018-03-17T06:36:05.492Z,100882
2018-03-17T06:37:48.640Z,100874
2018-03-17T06:39:31.786Z,100849
2018-03-17T06:41:14.938Z,100849
2018-03-17T06:42:58.069Z,100822
2018-03-17T06:44:41.251Z,100838
2018-03-17T06:46:24.375Z,100820
2018-03-17T06:48:07.497Z,100822
2018-03-17T06:49:50.617Z,100823
2018-03-17T06:51:33.852Z,100796
2018-03-17T06:53:17.056Z,100844
2018-03-17T06:55:00.182Z,100867
2018-03-17T06:56:43.316Z,100901
2018-03-17T06:58:26.509Z,100885
2018-03-17T07:00:09.714Z,100881
2018-03-17T07:01:52.846Z,100896
2018-03-17T07:03:36.088Z,100897
2018-03-17T07:05:19.972Z,100895
2018-03-17T07:07:03.114Z,100902
2018-03-17T07:08:46.332Z,100915
2018-03-17T07:10:29.465Z,100905
2018-03-17T07:12:12.603Z,100918
2018-03-17T07:13:56.484Z,100928
2018-03-17T07:15:39.616Z,100906
2018-03-17T07:17:23.754Z,100922
2018-03-17T07:19:06.928Z,100913
2018-03-17T07:20:50.106Z,100929
2018-03-17T07:22:33.327Z,100933
2018-03-17T07:24:16.534Z,100920
2018-03-17T07:25:59.671Z,100916
2018-03-17T07:27:43.607Z,100906
2018-03-17T07:29:27.534Z,100913
2018-03-17T07:31:10.761Z,100924
2018-03-17T07:32:53.924Z,100901
2018-03-17T07:34:37.046Z,100900
2018-03-17T07:36:20.178Z,100902
2018-03-17T07:38:03.326Z,100895
2018-03-17T07:39:47.213Z,100886
2018-03-17T07:41:30.378Z,100895
2018-03-17T07:43:14.284Z,100888
2018-03-17T07:44:57.416Z,100886
2018-03-17T07:46:40.555Z,100883
2018-03-17T07:48:24.443Z,100861
2018-03-17T07:50:07.602Z,100865
2018-03-17T07:51:51.491Z,100861
2018-03-17T07:53:34.626Z,100870
2018-03-17T07:55:17.847Z,100849
2018-03-17T07:57:01.785Z,100856
2018-03-17T07:58:44.904Z,100895
2018-03-17T08:00:28.082Z,100861
2018-03-17T08:02:11.199Z,100795
2018-03-17T08:03:54.312Z,100806
2018-03-17T08:05:37.436Z,100838
2018-03-17T08:07:20.588Z,100847
2018-03-17T08:09:03.734Z,100893
2018-03-17T08:10:46.854Z,100856
2018-03-17T08:12:30.745Z,100829
2018-03-17T08:14:13.862Z,100810
2018-03-17T08:15:56.983Z,100875
2018-03-17T08:17:40.206Z,100866
2018-03-17T08:19:23.317Z,100852
2018-03-17T08:21:06.446Z,100888
2018-03-17T08:22:50.314Z,100863
2018-03-17T08:24:33.787Z,100895
2018-03-17T08:26:16.934Z,100901
2018-03-17T08:28:00.824Z,100900
2018-03-17T08:29:43.953Z,100886
2018-03-17T08:31:27.064Z,100879
2018-03-17T08:33:10.217Z,100946
2018-03-17T08:34:54.124Z,100920
2018-03-17T08:36:37.276Z,100891
2018-03-17T08:38:21.182Z,100921
2018-03-17T08:40:04.293Z,100914
2018-03-17T08:41:47.408Z,100892
2018-03-17T08:43:30.628Z,100904
2018-03-17T08:45:13.740Z,100920
2018-03-17T08:46:56.900Z,100913
2018-03-17T08:48:40.780Z,100919
2018-03-17T08:50:23.892Z,100899
2018-03-17T08:52:07.007Z,100929
2018-03-17T08:53:50.166Z,100923
2018-03-17T08:55:34.037Z,100906
2018-03-17T08:57:17.211Z,100925
2018-03-17T08:59:00.327Z,100879
2018-03-17T09:00:43.559Z,100884
2018-03-17T09:02:27.534Z,100889
2018-03-17T09:04:12.074Z,100896
2018-03-17T09:05:55.264Z,100910
2018-03-17T09:07:39.154Z,100914
2018-03-17T09:09:22.273Z,100888
2018-03-17T09:11:05.436Z,100899
2018-03-17T09:12:49.364Z,100877
2018-03-17T09:14:33.238Z,100888
2018-03-17T09:16:16.343Z,100892
2018-03-17T09:17:59.469Z,100880
2018-03-17T09:19:42.665Z,100846
2018-03-17T09:21:25.812Z,100833
2018-03-17T09:23:08.984Z,100839
2018-03-17T09:24:52.888Z,100843
2018-03-17T09:26:36.010Z,100834
2018-03-17T09:28:19.210Z,100847
2018-03-17T09:30:02.318Z,100838
2018-03-17T09:31:45.446Z,100857
2018-03-17T09:33:28.573Z,100859
2018-03-17T09:35:11.680Z,100821
2018-03-17T09:36:54.811Z,100847
2018-03-17T09:38:38.064Z,100873
2018-03-17T09:40:22.054Z,100876
2018-03-17T09:42:05.200Z,100894
2018-03-17T09:43:49.103Z,100870
2018-03-17T09:45:32.224Z,100850
2018-03-17T09:47:15.346Z,100868
2018-03-17T09:48:58.565Z,100877
2018-03-17T09:50:41.685Z,100885
2018-03-17T09:52:24.799Z,100878
2018-03-17T09:54:08.098Z,100895
2018-03-17T09:55:51.228Z,100864
2018-03-17T09:57:34.469Z,100869
2018-03-17T09:59:17.584Z,100863
2018-03-17T10:01:00.684Z,100882
2018-03-17T10:02:43.859Z,100874
2018-03-17T10:04:27.025Z,100865
2018-03-17T10:06:10.132Z,100862
2018-03-17T10:07:53.257Z,100855
2018-03-17T10:09:36.395Z,100844
2018-03-17T10:11:20.300Z,100849
2018-03-17T10:13:03.442Z,100870
2018-03-17T10:14:47.313Z,100887
2018-03-17T10:16:30.483Z,100853
2018-03-17T10:18:13.620Z,100843
2018-03-17T10:19:57.496Z,100885
2018-03-17T10:21:40.657Z,100893
2018-03-17T10:23:24.587Z,100848
2018-03-17T10:25:07.699Z,100854
2018-03-17T10:26:50.828Z,100856
2018-03-17T10:28:34.042Z,100853
2018-03-17T10:30:17.320Z,100849
2018-03-17T10:32:01.176Z,100833
2018-03-17T10:33:44.410Z,100826
2018-03-17T10:35:27.544Z,100837
2018-03-17T10:37:11.489Z,100850
2018-03-17T10:38:54.651Z,100857
2018-03-17T10:40:37.773Z,100850
2018-03-17T10:42:20.885Z,100873
2018-03-17T10:44:03.993Z,100845
2018-03-17T10:45:47.108Z,100847
2018-03-17T10:47:30.271Z,100833
2018-03-17T10:49:14.168Z,100839
2018-03-17T10:50:57.294Z,100850
2018-03-17T10:52:40.437Z,100831
2018-03-17T10:54:23.644Z,100827
2018-03-17T10:56:06.758Z,100829
2018-03-17T10:57:49.872Z,100834
2018-03-17T10:59:33.016Z,100833
2018-03-17T11:01:20.869Z,100844
2018-03-17T11:03:04.097Z,100843
2018-03-17T11:04:47.228Z,100844
2018-03-17T11:06:30.329Z,100856
2018-03-17T11:08:13.437Z,100855
2018-03-17T11:09:56.618Z,100850
2018-03-17T11:11:39.797Z,100847
2018-03-17T11:13:23.088Z,100854
2018-03-17T11:15:06.248Z,100838
2018-03-17T11:16:49.415Z,100860
2018-03-17T11:18:32.546Z,100847
2018-03-17T11:20:15.668Z,100856
2018-03-17T11:21:58.785Z,100839
2018-03-17T11:23:41.901Z,100854
2018-03-17T11:25:25.044Z,100839
2018-03-17T11:27:08.940Z,100838
2018-03-17T11:28:52.106Z,100855
2018-03-17T11:30:35.252Z,100857
2018-03-17T11:32:19.131Z,100855
2018-03-17T11:34:02.399Z,100850
2018-03-17T11:35:46.290Z,100839
2018-03-17T11:37:29.439Z,100837
2018-03-17T11:39:13.254Z,100852
2018-03-17T11:40:56.365Z,100867
2018-03-17T11:42:39.529Z,100854
2018-03-17T11:44:23.417Z,100829
2018-03-17T11:46:06.539Z,100845
2018-03-17T11:47:49.651Z,100852
2018-03-17T11:49:32.872Z,100824
2018-03-17T11:51:15.995Z,100830
2018-03-17T11:52:59.209Z,100868
2018-03-17T11:54:42.474Z,100834
2018-03-17T11:56:26.361Z,100834
2018-03-17T11:58:09.493Z,100828
2018-03-17T11:59:52.611Z,100851
2018-03-17T12:01:35.836Z,100826
2018-03-17T12:03:19.775Z,100825
2018-03-17T12:05:03.689Z,100811
2018-03-17T12:06:46.814Z,100852
2018-03-17T12:08:29.966Z,100827
2018-03-17T12:10:13.097Z,100834
2018-03-17T12:11:56.242Z,100843
2018-03-17T12:13:39.379Z,100823
2018-03-17T12:15:22.507Z,100826
2018-03-17T12:17:05.726Z,100816
2018-03-17T12:18:49.598Z,100812
2018-03-17T12:20:32.784Z,100782
2018-03-17T12:22:16.708Z,100807
2018-03-17T12:23:59.834Z,100776
2018-03-17T12:25:43.851Z,100798
2018-03-17T12:27:26.971Z,100809
2018-03-17T12:29:10.086Z,100799
2018-03-17T12:30:53.222Z,100808
2018-03-17T12:32:37.115Z,100832
2018-03-17T12:34:20.235Z,100812
2018-03-17T12:36:03.351Z,100792
2018-03-17T12:37:46.474Z,100802
2018-03-17T12:39:29.592Z,100801
2018-03-17T12:41:12.697Z,100799
2018-03-17T12:42:55.802Z,100787
2018-03-17T12:44:38.941Z,100794
2018-03-17T12:46:22.168Z,100801
2018-03-17T12:48:05.378Z,100797
2018-03-17T12:49:48.504Z,100792
2018-03-17T12:51:31.720Z,100789
2018-03-17T12:53:14.856Z,100778
2018-03-17T12:54:58.745Z,100790
2018-03-17T12:56:41.884Z,100773
2018-03-17T12:58:25.121Z,100804
2018-03-17T13:00:08.258Z,100802
2018-03-17T13:01:52.177Z,100790
2018-03-17T13:03:36.093Z,100772
2018-03-17T13:05:19.325Z,100790
2018-03-17T13:07:02.541Z,100783
2018-03-17T13:08:45.652Z,100786
2018-03-17T13:10:28.805Z,100791
2018-03-17T13:12:12.110Z,100799
2018-03-17T13:13:56.026Z,100784
2018-03-17T13:15:39.219Z,100822
2018-03-17T13:17:22.373Z,100782
2018-03-17T13:19:05.584Z,100788
2018-03-17T13:20:48.741Z,100797
2018-03-17T13:22:49.746Z,100814
2018-03-17T13:24:33.664Z,100797
2018-03-17T13:26:16.794Z,100790
2018-03-17T13:28:17.938Z,100761
2018-03-17T13:30:01.837Z,100777
2018-03-17T13:31:44.958Z,100772
2018-03-17T13:33:28.105Z,100789
2018-03-17T13:35:11.222Z,100799
2018-03-17T13:37:12.159Z,100787
2018-03-17T13:38:55.288Z,100792
2018-03-17T13:40:42.957Z,100788
2018-03-17T13:42:26.140Z,100809
2018-03-17T13:44:10.059Z,100811
2018-03-17T13:45:53.485Z,100794
2018-03-17T13:47:36.591Z,100791
2018-03-17T13:49:19.708Z,100806
2018-03-17T13:51:02.841Z,100798
2018-03-17T13:52:46.751Z,100794
2018-03-17T13:54:29.884Z,100802
2018-03-17T13:56:13.108Z,100844
2018-03-17T13:57:56.642Z,100812
2018-03-17T13:59:40.549Z,100844
2018-03-17T14:01:23.690Z,100819
2018-03-17T14:03:07.567Z,100805
2018-03-17T14:04:50.745Z,100807
2018-03-17T14:06:34.646Z,100810
2018-03-17T14:08:17.760Z,100803
2018-03-17T14:11:50.282Z,100834
2018-03-17T14:13:34.172Z,100799
2018-03-17T14:15:17.352Z,100795
2018-03-17T14:17:01.296Z,100827
2018-03-17T14:18:44.514Z,100806
2018-03-17T14:20:27.633Z,100825
2018-03-17T14:22:10.781Z,100826
2018-03-17T14:23:53.882Z,100824
2018-03-17T14:25:37.006Z,100834
2018-03-17T14:27:20.414Z,100839
2018-03-17T14:29:03.697Z,100849
2018-03-17T14:30:46.838Z,100844
2018-03-17T14:32:29.984Z,100818
2018-03-17T14:34:13.117Z,100821
2018-03-17T14:35:56.247Z,100821
2018-03-17T14:37:39.674Z,100830
2018-03-17T14:39:22.909Z,100819
2018-03-17T14:41:06.846Z,100822
2018-03-17T14:42:50.009Z,100829
2018-03-17T14:44:33.125Z,100821
2018-03-17T14:46:16.308Z,100816
2018-03-17T14:48:00.311Z,100843
2018-03-17T14:49:43.467Z,100830
2018-03-17T14:51:27.363Z,100854
2018-03-17T14:53:10.532Z,100849
2018-03-17T14:54:54.419Z,100859
2018-03-17T14:56:37.543Z,100848
2018-03-17T14:58:20.981Z,100836
2018-03-17T15:00:04.215Z,100816
2018-03-17T15:01:48.159Z,100819
2018-03-17T15:03:32.325Z,100828
2018-03-17T15:05:15.492Z,100879
2018-03-17T15:06:58.737Z,100857
2018-03-17T15:08:42.644Z,100850
2018-03-17T15:10:25.769Z,100826
2018-03-17T15:12:08.903Z,100797
2018-03-17T15:13:52.806Z,100822
2018-03-17T15:15:35.929Z,100816
2018-03-17T15:17:19.178Z,100806
2018-03-17T15:19:03.129Z,100807
2018-03-17T15:20:47.053Z,100798
2018-03-17T15:22:30.978Z,100818
2018-03-17T15:24:14.929Z,100827
2018-03-17T15:25:58.897Z,100839
2018-03-17T15:27:42.029Z,100836
2018-03-17T15:29:25.167Z,100827
2018-03-17T15:31:08.308Z,100813
2018-03-17T15:32:52.206Z,100815
2018-03-17T15:34:35.361Z,100821
2018-03-17T15:36:19.246Z,100809
2018-03-17T15:38:02.402Z,100806
2018-03-17T15:39:45.560Z,100803
2018-03-17T15:41:28.697Z,100807
2018-03-17T15:43:11.826Z,100812
2018-03-17T15:44:54.973Z,100827
2018-03-17T15:46:38.923Z,100824
2018-03-17T15:48:22.842Z,100844
2018-03-17T15:50:06.022Z,100827
2018-03-17T15:51:49.168Z,100856
2018-03-17T15:53:32.379Z,100824
2018-03-17T15:55:15.525Z,100829
2018-03-17T15:56:59.424Z,100852
2018-03-17T15:58:42.561Z,100827
2018-03-17T16:00:25.798Z,100856
2018-03-17T16:02:09.718Z,100836
2018-03-17T16:03:52.832Z,100833
2018-03-17T16:05:36.016Z,100862
2018-03-17T16:07:19.166Z,100807
2018-03-17T16:09:03.072Z,100850
2018-03-17T16:10:46.217Z,100855
2018-03-17T16:12:29.353Z,100863
2018-03-17T16:14:13.233Z,100861
2018-03-17T16:15:56.390Z,100835
2018-03-17T16:17:39.535Z,100832
2018-03-17T16:19:22.748Z,100825
2018-03-17T16:21:05.941Z,100831
2018-03-17T16:22:49.071Z,100823
2018-03-17T16:24:32.960Z,100834
2018-03-17T16:26:16.192Z,100844
2018-03-17T16:27:59.334Z,100848
2018-03-17T16:29:43.239Z,100853
2018-03-17T16:31:26.904Z,100872
2018-03-17T16:33:10.794Z,100834
2018-03-17T16:34:53.904Z,100869
2018-03-17T16:36:37.058Z,100876
2018-03-17T16:38:20.184Z,100862
2018-03-17T16:40:04.086Z,100852
2018-03-17T16:41:47.369Z,100858
2018-03-17T16:43:30.537Z,100876
2018-03-17T16:45:13.865Z,100863
2018-03-17T16:46:57.001Z,100880
2018-03-17T16:48:41.036Z,100873
2018-03-17T16:50:24.984Z,100902
2018-03-17T16:52:08.143Z,100874
2018-03-17T16:53:51.340Z,100867
2018-03-17T16:55:34.489Z,100868
2018-03-17T16:57:17.742Z,100880
2018-03-17T16:59:01.677Z,100877
2018-03-17T17:00:45.606Z,100859
2018-03-17T17:02:29.502Z,100880
2018-03-17T17:04:12.619Z,100884
2018-03-17T17:05:55.734Z,100899
2018-03-17T17:07:38.888Z,100892
2018-03-17T17:09:22.007Z,100898
2018-03-17T17:11:05.890Z,100880
2018-03-17T17:12:49.031Z,100899
2018-03-17T17:14:32.173Z,100897
2018-03-17T17:16:15.296Z,100892
2018-03-17T17:17:59.194Z,100885
2018-03-17T17:19:42.318Z,100887
2018-03-17T17:21:25.540Z,100902
2018-03-17T17:23:08.680Z,100901
2018-03-17T17:24:52.574Z,100902
2018-03-17T17:26:35.738Z,100890
2018-03-17T17:28:19.668Z,100906
2018-03-17T17:30:03.605Z,100896
2018-03-17T17:31:47.554Z,100898
2018-03-17T17:33:30.757Z,100899
2018-03-17T17:35:14.644Z,100900
2018-03-17T17:36:57.769Z,100902
2018-03-17T17:38:40.930Z,100917
2018-03-17T17:40:24.829Z,100896
2018-03-17T17:42:08.065Z,100899
2018-03-17T17:43:51.209Z,100904
2018-03-17T17:45:35.114Z,100904
2018-03-17T17:47:18.253Z,100898
2018-03-17T17:49:02.173Z,100908
2018-03-17T17:50:46.107Z,100922
2018-03-17T17:52:29.330Z,100916
2018-03-17T17:54:12.515Z,100922
2018-03-17T17:55:55.668Z,100921
2018-03-17T17:57:39.585Z,100927
2018-03-17T17:59:22.739Z,100923
2018-03-17T18:01:05.925Z,100924
2018-03-17T18:02:49.078Z,100925
2018-03-17T18:04:32.375Z,100915
2018-03-17T18:06:16.304Z,100935
2018-03-17T18:07:59.458Z,100920
2018-03-17T18:09:42.626Z,100917
2018-03-17T18:11:25.780Z,100926
2018-03-17T18:13:08.978Z,100916
2018-03-17T18:14:52.896Z,100925
2018-03-17T18:16:36.039Z,100920
2018-03-17T18:18:19.939Z,100937
2018-03-17T18:20:03.179Z,100928
2018-03-17T18:21:46.321Z,100930
2018-03-17T18:23:30.234Z,100932
2018-03-17T18:25:14.149Z,100926
2018-03-17T18:26:57.335Z,100918
2018-03-17T18:28:40.506Z,100939
2018-03-17T18:30:24.464Z,100926
2018-03-17T18:32:07.766Z,100935
2018-03-17T18:33:51.696Z,100930
2018-03-17T18:35:35.584Z,100930
2018-03-17T18:37:18.708Z,100922
2018-03-17T18:39:01.865Z,100936
2018-03-17T18:40:45.811Z,100921
2018-03-17T18:42:29.723Z,100921
2018-03-17T18:44:13.639Z,100937
2018-03-17T18:45:56.774Z,100937
2018-03-17T18:47:39.899Z,100935
2018-03-17T18:49:23.799Z,100937
2018-03-17T18:51:11.869Z,100936
2018-03-17T18:52:54.986Z,100944
2018-03-17T18:54:38.198Z,100947
2018-03-17T18:56:21.424Z,100933
2018-03-17T18:58:05.332Z,100941
2018-03-17T18:59:48.506Z,100940
2018-03-17T19:01:31.639Z,100944
2018-03-17T19:03:14.772Z,100935
2018-03-17T19:04:57.926Z,100943
2018-03-17T19:06:41.060Z,100952
2018-03-17T19:08:24.957Z,100972
2018-03-17T19:10:08.106Z,100942
2018-03-17T19:11:52.009Z,100941
2018-03-17T19:13:35.142Z,100956
2018-03-17T19:15:19.028Z,100942
2018-03-17T19:17:02.198Z,100959
2018-03-17T19:18:46.423Z,100940
2018-03-17T19:20:29.544Z,100954
2018-03-17T19:22:12.773Z,100959
2018-03-17T19:23:55.989Z,100950
2018-03-17T19:25:39.111Z,100964
2018-03-17T19:27:23.006Z,100960
2018-03-17T19:29:06.343Z,100986
2018-03-17T19:30:50.305Z,100977
2018-03-17T19:32:34.275Z,100975
2018-03-17T19:34:18.169Z,100971
2018-03-17T19:36:01.298Z,100977
2018-03-17T19:37:45.173Z,101011
2018-03-17T19:39:28.580Z,100975
2018-03-17T19:41:11.709Z,100972
2018-03-17T19:42:54.843Z,100970
2018-03-17T19:44:38.299Z,100973
2018-03-17T19:46:21.431Z,100965
2018-03-17T19:48:05.322Z,100967
2018-03-17T19:49:48.461Z,100978
2018-03-17T19:51:31.658Z,100975
2018-03-17T19:53:14.791Z,100966
2018-03-17T19:54:58.128Z,100967
2018-03-17T19:56:42.004Z,100987
2018-03-17T19:58:25.133Z,100994
2018-03-17T20:00:08.324Z,100977
2018-03-17T20:01:51.468Z,100969
2018-03-17T20:03:34.617Z,100997
2018-03-17T20:05:17.800Z,100967
2018-03-17T20:07:00.970Z,100973
2018-03-17T20:08:45.008Z,100985
2018-03-17T20:10:29.037Z,100973
2018-03-17T20:12:12.928Z,100976
2018-03-17T20:13:56.047Z,100981
2018-03-17T20:15:39.173Z,101000
2018-03-17T20:17:22.311Z,100985
2018-03-17T20:19:05.851Z,100993
2018-03-17T20:20:49.045Z,100985
2018-03-17T20:22:32.167Z,100977
2018-03-17T20:24:15.378Z,100979
2018-03-17T20:25:58.708Z,100994
2018-03-17T20:27:42.637Z,100990
2018-03-17T20:29:25.747Z,100994
2018-03-17T20:31:09.002Z,100998
2018-03-17T20:32:52.940Z,100985
2018-03-17T20:34:36.851Z,100980
2018-03-17T20:36:20.063Z,100985
2018-03-17T20:38:03.200Z,100994
2018-03-17T20:39:47.090Z,100994
2018-03-17T20:41:30.225Z,101017
2018-03-17T20:43:13.341Z,100992
2018-03-17T20:44:56.467Z,101010
2018-03-17T20:46:39.628Z,100995
2018-03-17T20:48:22.977Z,101005
2018-03-17T20:50:06.203Z,100986
2018-03-17T20:51:49.356Z,101011
2018-03-17T20:53:33.248Z,100999
2018-03-17T20:55:16.386Z,101005
2018-03-17T20:56:59.510Z,101005
2018-03-17T20:58:42.847Z,101017
2018-03-17T21:00:26.782Z,101015
2018-03-17T21:02:10.713Z,101005
2018-03-17T21:03:53.853Z,101010
2018-03-17T21:05:37.046Z,101002
2018-03-17T21:07:21.079Z,101007
2018-03-17T21:09:04.219Z,100963
2018-03-17T21:10:47.425Z,101014
2018-03-17T21:12:31.320Z,101037
2018-03-17T21:14:14.452Z,101002
2018-03-17T21:15:57.705Z,101017
2018-03-17T21:17:41.741Z,101003
2018-03-17T21:19:25.671Z,101017
2018-03-17T21:21:09.612Z,101030
2018-03-17T21:22:53.623Z,101011
2018-03-17T21:24:36.833Z,101029
2018-03-17T21:26:21.490Z,101048
2018-03-17T21:28:04.603Z,101014
2018-03-17T21:29:47.889Z,101007
2018-03-17T21:31:31.777Z,101006
2018-03-17T21:33:14.981Z,101026
2018-03-17T21:34:58.235Z,101028